createdAt,value
2019-02-09T00:01:20.750Z,6.69
2019-02-09T00:03:57.804Z,6.68
2019-02-09T00:06:34.625Z,6.68
2019-02-09T00:09:08.682Z,6.67
2019-02-09T00:11:42.304Z,6.67
2019-02-09T00:14:13.043Z,6.66
2019-02-09T00:16:54.876Z,6.68
2019-02-09T00:19:40.817Z,6.69
2019-02-09T00:22:39.474Z,6.69
2019-02-09T00:26:09.858Z,6.69
2019-02-09T00:27:35.995Z,6.73
2019-02-09T00:30:07.509Z,6.76
2019-02-09T00:32:40.343Z,6.79
2019-02-09T00:35:22.512Z,6.82
2019-02-09T00:37:57.834Z,6.83
2019-02-09T00:40:42.118Z,6.86
2019-02-09T00:43:09.919Z,6.89
2019-02-09T00:45:40.275Z,6.92
2019-02-09T00:48:12.640Z,6.96
2019-02-09T00:50:51.386Z,6.98
2019-02-09T00:53:35.710Z,6.98
2019-02-09T00:56:09.384Z,6.97
2019-02-09T00:58:40.770Z,7.01
2019-02-09T01:01:11.120Z,7.00
2019-02-09T01:03:55.574Z,7.00
2019-02-09T01:06:25.491Z,7.00
2019-02-09T01:08:57.665Z,7.01
2019-02-09T01:11:28.283Z,7.01
2019-02-09T01:13:58.860Z,7.02
2019-02-09T01:16:39.251Z,7.02
2019-02-09T01:19:17.470Z,7.00
2019-02-09T01:21:51.433Z,6.99
2019-02-09T01:24:24.168Z,6.98
2019-02-09T01:26:54.798Z,6.94
2019-02-09T01:29:28.069Z,6.94
2019-02-09T01:32:01.918Z,6.91
2019-02-09T01:34:35.225Z,6.90
2019-02-09T01:37:09.988Z,6.89
2019-02-09T01:39:40.309Z,6.88
2019-02-09T01:42:12.189Z,6.86
2019-02-09T01:44:47.288Z,6.86
2019-02-09T01:47:17.832Z,6.85
2019-02-09T01:49:48.154Z,6.84
2019-02-09T01:52:20.651Z,6.83
2019-02-09T01:54:51.007Z,6.81
2019-02-09T01:57:21.248Z,6.80
2019-02-09T01:59:51.636Z,6.78
2019-02-09T02:02:26.861Z,6.77
2019-02-09T02:05:14.667Z,6.74
2019-02-09T02:07:39.495Z,6.75
2019-02-09T02:10:14.694Z,6.76
2019-02-09T02:12:45.109Z,6.77
2019-02-09T02:15:20.080Z,6.78
2019-02-09T02:17:51.116Z,6.80
2019-02-09T02:20:24.572Z,6.80
2019-02-09T02:22:55.093Z,6.78
2019-02-09T02:25:25.677Z,6.77
2019-02-09T02:28:07.747Z,6.81
2019-02-09T02:30:39.404Z,6.92
2019-02-09T02:33:10.703Z,6.98
2019-02-09T02:35:42.695Z,7.00
2019-02-09T02:38:14.504Z,7.03
2019-02-09T02:40:47.269Z,7.04
2019-02-09T02:43:17.919Z,7.04
2019-02-09T02:45:51.495Z,7.08
2019-02-09T02:48:22.087Z,7.08
2019-02-09T02:50:55.366Z,7.14
2019-02-09T02:53:27.395Z,7.20
2019-02-09T02:56:01.321Z,7.21
2019-02-09T02:58:33.943Z,7.40
2019-02-09T03:01:05.718Z,7.42
2019-02-09T03:03:36.292Z,7.36
2019-02-09T03:06:18.866Z,7.39
2019-02-09T03:08:47.631Z,7.56
2019-02-09T03:11:19.769Z,7.60
2019-02-09T03:13:51.182Z,7.58
2019-02-09T03:16:22.842Z,7.57
2019-02-09T03:18:55.397Z,7.46
2019-02-09T03:21:40.590Z,7.41
2019-02-09T03:24:09.336Z,7.44
2019-02-09T03:26:39.906Z,7.42
2019-02-09T03:29:10.223Z,7.48
2019-02-09T03:31:44.471Z,7.52
2019-02-09T03:34:19.101Z,7.52
2019-02-09T03:36:52.234Z,7.47
2019-02-09T03:39:25.607Z,7.47
2019-02-09T03:41:56.931Z,7.49
2019-02-09T03:44:27.728Z,7.47
2019-02-09T03:46:58.418Z,7.41
2019-02-09T03:49:29.090Z,7.40
2019-02-09T03:51:59.479Z,7.28
2019-02-09T03:54:30.104Z,7.19
2019-02-09T03:57:02.022Z,7.30
2019-02-09T03:59:32.648Z,7.39
2019-02-09T04:02:10.967Z,7.48
2019-02-09T04:04:41.285Z,7.49
2019-02-09T04:07:11.825Z,7.38
2019-02-09T04:09:45.510Z,7.35
2019-02-09T04:12:15.886Z,7.32
2019-02-09T04:14:46.273Z,7.33
2019-02-09T04:17:18.095Z,7.48
2019-02-09T04:19:51.190Z,7.58
2019-02-09T04:22:27.070Z,7.51
2019-02-09T04:25:12.147Z,7.26
2019-02-09T04:27:45.491Z,6.93
2019-02-09T04:30:19.085Z,6.80
2019-02-09T04:32:49.450Z,6.75
2019-02-09T04:35:21.687Z,6.73
2019-02-09T04:37:56.464Z,6.71
2019-02-09T04:40:31.467Z,6.69
2019-02-09T04:43:01.832Z,6.69
2019-02-09T04:45:36.659Z,6.68
2019-02-09T04:48:11.025Z,6.68
2019-02-09T04:50:45.539Z,6.57
2019-02-09T04:53:15.933Z,6.38
2019-02-09T04:55:48.478Z,6.13
2019-02-09T04:58:18.805Z,6.01
2019-02-09T05:00:50.769Z,6.06
2019-02-09T05:03:22.658Z,6.19
2019-02-09T05:05:53.741Z,6.09
2019-02-09T05:08:28.121Z,5.99
2019-02-09T05:11:02.394Z,5.92
2019-02-09T05:13:34.812Z,6.03
2019-02-09T05:16:07.137Z,6.19
2019-02-09T05:18:37.430Z,6.28
2019-02-09T05:21:09.418Z,6.30
2019-02-09T05:23:41.241Z,6.31
2019-02-09T05:26:14.691Z,6.27
2019-02-09T05:28:45.233Z,6.31
2019-02-09T05:31:22.889Z,6.38
2019-02-09T05:33:57.457Z,6.40
2019-02-09T05:36:24.746Z,6.38
2019-02-09T05:38:56.039Z,6.32
2019-02-09T05:41:29.358Z,6.24
2019-02-09T05:44:00.396Z,6.26
2019-02-09T05:46:33.668Z,6.23
2019-02-09T05:49:04.542Z,6.15
2019-02-09T05:51:35.534Z,6.14
2019-02-09T05:54:07.040Z,6.09
2019-02-09T05:56:37.562Z,6.12
2019-02-09T05:59:07.946Z,6.17
2019-02-09T06:01:39.842Z,6.33
2019-02-09T06:04:15.104Z,6.51
2019-02-09T06:06:45.020Z,6.71
2019-02-09T06:09:14.540Z,6.83
2019-02-09T06:11:46.591Z,6.86
2019-02-09T06:14:18.624Z,6.92
2019-02-09T06:16:56.926Z,6.92
2019-02-09T06:19:29.857Z,7.08
2019-02-09T06:22:04.169Z,7.19
2019-02-09T06:24:34.620Z,7.20
2019-02-09T06:27:05.250Z,7.21
2019-02-09T06:29:43.358Z,7.21
2019-02-09T06:32:23.531Z,7.20
2019-02-09T06:34:56.639Z,7.31
2019-02-09T06:37:26.940Z,7.34
2019-02-09T06:40:01.001Z,7.23
2019-02-09T06:42:31.682Z,7.12
2019-02-09T06:45:02.114Z,7.07
2019-02-09T06:47:36.551Z,6.95
2019-02-09T06:50:11.045Z,6.79
2019-02-09T06:52:41.634Z,6.76
2019-02-09T06:55:14.656Z,6.71
2019-02-09T06:57:45.114Z,6.68
2019-02-09T07:00:21.279Z,6.59
2019-02-09T07:02:54.543Z,6.63
2019-02-09T07:05:25.021Z,6.80
2019-02-09T07:07:55.600Z,6.94
2019-02-09T07:10:35.645Z,7.01
2019-02-09T07:13:03.542Z,6.91
2019-02-09T07:15:35.875Z,6.76
2019-02-09T07:18:08.301Z,6.60
2019-02-09T07:20:38.729Z,6.36
2019-02-09T07:23:10.604Z,6.18
2019-02-09T07:25:53.381Z,6.06
2019-02-09T07:28:17.484Z,6.06
2019-02-09T07:30:48.066Z,6.05
2019-02-09T07:33:31.378Z,6.03
2019-02-09T07:36:02.764Z,6.00
2019-02-09T07:38:40.968Z,5.99
2019-02-09T07:41:10.835Z,5.98
2019-02-09T07:43:41.167Z,6.03
2019-02-09T07:46:14.267Z,6.22
2019-02-09T07:48:45.849Z,6.38
2019-02-09T07:51:17.551Z,6.34
2019-02-09T07:53:50.142Z,6.18
2019-02-09T07:56:20.637Z,6.20
2019-02-09T07:58:52.248Z,6.22
2019-02-09T08:01:22.585Z,6.32
2019-02-09T08:03:53.157Z,6.38
2019-02-09T08:06:24.979Z,6.61
2019-02-09T08:09:02.373Z,6.74
2019-02-09T08:11:36.644Z,6.70
2019-02-09T08:14:08.514Z,6.70
2019-02-09T08:16:40.154Z,6.73
2019-02-09T08:19:13.663Z,6.79
2019-02-09T08:21:44.447Z,6.86
2019-02-09T08:24:16.799Z,6.98
2019-02-09T08:26:47.345Z,7.07
2019-02-09T08:29:19.986Z,7.15
2019-02-09T08:31:52.372Z,7.21
2019-02-09T08:34:28.269Z,7.27
2019-02-09T08:37:00.556Z,7.32
2019-02-09T08:39:34.651Z,7.36
2019-02-09T08:42:13.534Z,7.45
2019-02-09T08:44:44.685Z,8.19
2019-02-09T08:47:15.266Z,9.91
2019-02-09T08:49:46.742Z,11.50
2019-02-09T08:52:28.684Z,13.58
2019-02-09T08:55:00.876Z,12.95
2019-02-09T08:57:32.885Z,11.90
2019-02-09T09:00:03.336Z,12.40
2019-02-09T09:02:39.145Z,11.86
2019-02-09T09:05:16.214Z,11.61
2019-02-09T09:07:48.384Z,12.12
2019-02-09T09:10:20.206Z,12.52
2019-02-09T09:12:51.932Z,12.62
2019-02-09T09:15:25.790Z,12.84
2019-02-09T09:18:01.335Z,12.12
2019-02-09T09:20:37.580Z,11.07
2019-02-09T09:23:09.507Z,10.47
2019-02-09T09:25:40.110Z,9.98
2019-02-09T09:28:11.905Z,9.92
2019-02-09T09:30:48.868Z,9.63
2019-02-09T09:33:22.218Z,9.54
2019-02-09T09:35:52.757Z,9.66
2019-02-09T09:38:23.133Z,9.57
2019-02-09T09:40:53.856Z,9.82
2019-02-09T09:43:31.309Z,10.42
2019-02-09T09:46:04.776Z,10.57
2019-02-09T09:48:37.584Z,11.99
2019-02-09T09:51:09.482Z,11.45
2019-02-09T09:53:40.127Z,10.64
2019-02-09T09:56:10.510Z,12.75
2019-02-09T09:58:41.001Z,13.42
2019-02-09T10:01:13.913Z,13.17
2019-02-09T10:03:46.383Z,13.41
2019-02-09T10:06:18.586Z,13.37
2019-02-09T10:08:49.098Z,12.36
2019-02-09T10:11:22.017Z,13.24
2019-02-09T10:13:52.341Z,16.58
2019-02-09T10:16:23.196Z,16.35
2019-02-09T10:18:53.894Z,14.18
2019-02-09T10:21:24.224Z,13.39
2019-02-09T10:23:55.814Z,12.19
2019-02-09T10:26:34.775Z,11.26
2019-02-09T10:29:03.562Z,10.96
2019-02-09T10:31:33.890Z,10.78
2019-02-09T10:34:07.936Z,10.11
2019-02-09T10:36:38.658Z,10.11
2019-02-09T10:39:10.315Z,9.92
2019-02-09T10:41:41.115Z,9.86
2019-02-09T10:44:16.414Z,9.90
2019-02-09T10:47:08.100Z,9.99
2019-02-09T10:49:51.154Z,10.59
2019-02-09T10:52:11.935Z,10.30
2019-02-09T10:54:42.291Z,9.65
2019-02-09T10:57:14.217Z,9.51
2019-02-09T10:59:44.837Z,9.94
2019-02-09T11:02:16.931Z,10.36
2019-02-09T11:04:47.259Z,9.99
2019-02-09T11:07:28.061Z,10.11
2019-02-09T11:10:17.612Z,10.24
2019-02-09T11:12:32.963Z,10.47
2019-02-09T11:15:06.660Z,10.51
2019-02-09T11:17:37.120Z,10.37
2019-02-09T11:20:19.043Z,10.30
2019-02-09T11:22:52.071Z,10.30
2019-02-09T11:25:24.768Z,10.56
2019-02-09T11:27:55.162Z,10.28
2019-02-09T11:30:26.051Z,10.11
2019-02-09T11:33:03.409Z,9.86
2019-02-09T11:35:29.243Z,9.91
2019-02-09T11:38:04.618Z,9.96
2019-02-09T11:40:35.544Z,10.17
2019-02-09T11:43:07.177Z,10.29
2019-02-09T11:45:38.321Z,10.27
2019-02-09T11:48:38.133Z,10.38
2019-02-09T11:50:44.815Z,10.64
2019-02-09T11:53:15.375Z,10.72
2019-02-09T11:55:45.860Z,10.83
2019-02-09T11:58:16.567Z,10.88
2019-02-09T12:00:53.750Z,11.01
2019-02-09T12:03:24.257Z,11.54
2019-02-09T12:05:54.715Z,11.73
2019-02-09T12:08:28.341Z,11.53
2019-02-09T12:11:02.517Z,11.40
2019-02-09T12:13:34.819Z,11.35
2019-02-09T12:16:08.755Z,11.18
2019-02-09T12:18:39.297Z,11.17
2019-02-09T12:21:10.926Z,11.15
2019-02-09T12:23:44.112Z,11.11
2019-02-09T12:26:17.468Z,11.13
2019-02-09T12:28:49.513Z,11.12
2019-02-09T12:31:20.475Z,11.03
2019-02-09T12:33:54.247Z,11.01
2019-02-09T12:36:30.333Z,10.93
2019-02-09T12:39:02.702Z,10.89
2019-02-09T12:41:34.689Z,10.90
2019-02-09T12:44:09.236Z,10.88
2019-02-09T12:46:46.809Z,10.64
2019-02-09T12:49:24.002Z,10.56
2019-02-09T12:51:56.263Z,10.49
2019-02-09T12:54:28.648Z,10.53
2019-02-09T12:57:04.028Z,10.64
2019-02-09T12:59:34.505Z,10.56
2019-02-09T13:02:10.870Z,10.45
2019-02-09T13:04:43.730Z,10.41
2019-02-09T13:07:14.351Z,10.49
2019-02-09T13:09:52.731Z,10.55
2019-02-09T13:12:31.194Z,10.64
2019-02-09T13:15:14.449Z,10.74
2019-02-09T13:17:46.533Z,10.79
2019-02-09T13:20:20.368Z,10.78
2019-02-09T13:22:51.657Z,10.80
2019-02-09T13:25:26.475Z,10.85
2019-02-09T13:28:10.694Z,11.01
2019-02-09T13:30:44.797Z,11.08
2019-02-09T13:33:17.957Z,11.25
2019-02-09T13:35:49.013Z,11.30
2019-02-09T13:38:19.770Z,11.41
2019-02-09T13:40:56.815Z,11.38
2019-02-09T13:43:46.514Z,11.36
2019-02-09T13:46:05.581Z,11.33
2019-02-09T13:48:38.126Z,11.28
2019-02-09T13:51:08.995Z,11.32
2019-02-09T13:53:41.559Z,11.38
2019-02-09T13:56:13.608Z,11.41
2019-02-09T13:58:47.020Z,11.37
2019-02-09T14:01:26.393Z,11.31
2019-02-09T14:03:58.949Z,11.25
2019-02-09T14:06:29.707Z,11.27
2019-02-09T14:09:00.655Z,11.31
2019-02-09T14:11:31.044Z,11.20
2019-02-09T14:14:02.651Z,11.02
2019-02-09T14:16:38.601Z,10.86
2019-02-09T14:21:42.957Z,10.29
2019-02-09T14:24:15.746Z,9.67
2019-02-09T14:26:56.959Z,9.02
2019-02-09T14:29:27.600Z,8.81
2019-02-09T14:31:58.615Z,8.49
2019-02-09T14:34:39.387Z,8.24
2019-02-09T14:37:15.596Z,8.19
2019-02-09T14:39:52.847Z,8.11
2019-02-09T14:42:29.842Z,8.02
2019-02-09T14:44:58.397Z,7.87
2019-02-09T14:47:29.030Z,7.87
2019-02-09T14:50:12.930Z,7.77
2019-02-09T14:52:59.079Z,7.70
2019-02-09T14:55:33.501Z,7.73
2019-02-09T14:58:10.965Z,7.72
2019-02-09T15:00:54.575Z,7.70
2019-02-09T15:03:30.413Z,7.72
2019-02-09T15:05:59.013Z,7.67
2019-02-09T15:08:31.309Z,7.62
2019-02-09T15:11:01.984Z,7.64
2019-02-09T15:14:01.935Z,7.69
2019-02-09T15:16:40.282Z,7.67
2019-02-09T15:19:33.184Z,7.63
2019-02-09T15:22:00.073Z,7.56
2019-02-09T15:24:30.492Z,7.53
2019-02-09T15:27:01.577Z,7.57
2019-02-09T15:29:31.916Z,7.70
2019-02-09T15:32:04.284Z,7.74
2019-02-09T15:34:34.798Z,7.81
2019-02-09T15:37:06.897Z,7.85
2019-02-09T15:39:37.448Z,7.84
2019-02-09T15:42:10.261Z,7.95
2019-02-09T15:44:48.670Z,7.92
2019-02-09T15:47:23.567Z,8.06
2019-02-09T15:49:58.414Z,8.33
2019-02-09T15:52:31.783Z,8.42
2019-02-09T15:55:02.324Z,8.36
2019-02-09T15:57:33.085Z,8.33
2019-02-09T16:00:03.984Z,8.25
2019-02-09T16:02:36.135Z,8.24
2019-02-09T16:05:15.762Z,8.32
2019-02-09T16:07:46.672Z,8.50
2019-02-09T16:10:19.661Z,8.54
2019-02-09T16:12:50.108Z,8.43
2019-02-09T16:15:34.853Z,8.25
2019-02-09T16:18:13.003Z,8.14
2019-02-09T16:20:47.980Z,8.16
2019-02-09T16:23:18.717Z,8.09
2019-02-09T16:25:51.060Z,8.19
2019-02-09T16:28:21.716Z,8.19
2019-02-09T16:30:54.931Z,8.24
2019-02-09T16:34:05.460Z,8.21
2019-02-09T16:36:02.467Z,8.25
2019-02-09T16:38:33.433Z,8.25
2019-02-09T16:41:04.056Z,8.23
2019-02-09T16:43:43.577Z,8.33
2019-02-09T16:46:28.792Z,8.47
2019-02-09T16:49:02.774Z,8.56
2019-02-09T16:51:32.965Z,8.59
2019-02-09T16:54:05.513Z,8.51
2019-02-09T16:56:41.753Z,8.46
2019-02-09T16:59:25.613Z,8.46
2019-02-09T17:02:02.386Z,8.39
2019-02-09T17:04:34.987Z,7.55
2019-02-09T17:07:05.482Z,7.55
2019-02-09T17:09:39.668Z,7.47
2019-02-09T17:12:12.343Z,7.49
2019-02-09T17:14:46.077Z,7.32
2019-02-09T17:17:18.434Z,7.32
2019-02-09T17:19:49.035Z,7.30
2019-02-09T17:22:22.581Z,7.23
2019-02-09T17:24:53.321Z,7.14
2019-02-09T17:27:25.590Z,7.09
2019-02-09T17:29:57.292Z,7.20
2019-02-09T17:32:27.951Z,7.16
2019-02-09T17:34:58.705Z,7.19
2019-02-09T17:37:29.620Z,7.06
2019-02-09T17:40:16.754Z,7.00
2019-02-09T17:42:34.317Z,7.01
2019-02-09T17:45:05.884Z,7.00
2019-02-09T17:47:36.371Z,6.94
2019-02-09T17:50:08.437Z,6.89
2019-02-09T17:52:43.622Z,6.94
2019-02-09T17:55:16.221Z,6.94
2019-02-09T17:57:48.354Z,6.94
2019-02-09T18:00:23.083Z,6.91
2019-02-09T18:02:53.691Z,6.93
2019-02-09T18:05:24.540Z,6.88
2019-02-09T18:08:26.899Z,6.97
2019-02-09T18:10:34.025Z,7.04
2019-02-09T18:13:04.892Z,7.13
2019-02-09T18:15:36.026Z,6.98
2019-02-09T18:18:07.487Z,6.98
2019-02-09T18:20:42.916Z,7.10
2019-02-09T18:23:13.277Z,7.29
2019-02-09T18:25:43.968Z,7.27
2019-02-09T18:28:18.865Z,7.26
2019-02-09T18:30:51.324Z,7.20
2019-02-09T18:33:23.565Z,7.18
2019-02-09T18:35:54.028Z,7.09
2019-02-09T18:38:24.458Z,7.13
2019-02-09T18:40:56.767Z,7.21
2019-02-09T18:43:27.435Z,7.21
2019-02-09T18:45:59.181Z,7.30
2019-02-09T18:48:32.799Z,7.28
2019-02-09T18:51:04.424Z,7.23
2019-02-09T18:53:36.448Z,7.29
2019-02-09T18:56:15.212Z,7.30
2019-02-09T18:58:41.523Z,7.41
2019-02-09T19:01:12.066Z,7.56
2019-02-09T19:03:44.106Z,7.58
2019-02-09T19:06:22.672Z,7.52
2019-02-09T19:08:54.673Z,7.52
2019-02-09T19:11:25.322Z,7.57
2019-02-09T19:13:55.672Z,7.62
2019-02-09T19:16:31.603Z,7.65
2019-02-09T19:19:06.354Z,7.71
2019-02-09T19:21:49.513Z,7.61
2019-02-09T19:24:27.885Z,7.60
2019-02-09T19:26:55.012Z,7.52
2019-02-09T19:29:27.947Z,7.47
2019-02-09T19:32:02.713Z,7.43
2019-02-09T19:34:36.918Z,7.41
2019-02-09T19:37:10.988Z,7.41
2019-02-09T19:39:41.699Z,7.38
2019-02-09T19:42:12.317Z,7.34
2019-02-09T19:44:44.369Z,7.33
2019-02-09T19:47:22.505Z,7.32
2019-02-09T19:49:54.861Z,7.25
2019-02-09T19:52:29.964Z,7.21
2019-02-09T19:55:14.495Z,7.27
2019-02-09T19:57:37.701Z,7.27
2019-02-09T20:00:11.650Z,7.31
2019-02-09T20:02:45.050Z,7.29
2019-02-09T20:05:20.729Z,7.38
2019-02-09T20:07:52.496Z,7.51
2019-02-09T20:10:27.513Z,7.48
2019-02-09T20:12:59.900Z,7.37
2019-02-09T20:15:36.793Z,7.36
2019-02-09T20:18:10.563Z,7.52
2019-02-09T20:20:48.982Z,7.67
2019-02-09T20:23:19.659Z,7.80
2019-02-09T20:25:50.113Z,7.80
2019-02-09T20:28:26.519Z,7.74
2019-02-09T20:30:56.976Z,7.66
2019-02-09T20:33:37.122Z,7.60
2019-02-09T20:36:09.292Z,7.64
2019-02-09T20:38:40.038Z,7.69
2019-02-09T20:41:11.278Z,7.60
2019-02-09T20:43:42.680Z,7.40
2019-02-09T20:46:13.302Z,7.28
2019-02-09T20:48:43.857Z,7.23
2019-02-09T20:51:14.255Z,7.20
2019-02-09T20:53:48.730Z,7.32
2019-02-09T20:56:26.317Z,7.49
2019-02-09T20:58:56.742Z,7.66
2019-02-09T21:01:40.047Z,7.73
2019-02-09T21:04:04.640Z,7.77
2019-02-09T21:06:36.212Z,7.69
2019-02-09T21:09:08.807Z,7.55
2019-02-09T21:11:41.323Z,7.36
2019-02-09T21:14:21.438Z,7.37
2019-02-09T21:16:53.036Z,7.34
2019-02-09T21:19:24.608Z,7.34
2019-02-09T21:21:56.450Z,7.30
2019-02-09T21:24:30.102Z,7.24
2019-02-09T21:27:06.060Z,7.24
2019-02-09T21:29:38.531Z,7.32
2019-02-09T21:32:11.530Z,7.33
2019-02-09T21:34:42.223Z,7.29
2019-02-09T21:37:20.537Z,7.28
2019-02-09T21:39:53.597Z,7.30
2019-02-09T21:42:26.018Z,7.34
2019-02-09T21:44:57.989Z,7.42
2019-02-09T21:47:29.828Z,7.46
2019-02-09T21:50:04.243Z,7.57
2019-02-09T21:52:56.286Z,7.60
2019-02-09T21:55:36.521Z,7.67
2019-02-09T21:58:07.920Z,7.79
2019-02-09T22:00:44.884Z,7.88
2019-02-09T22:03:15.823Z,7.95
2019-02-09T22:05:51.805Z,7.97
2019-02-09T22:08:20.024Z,7.97
2019-02-09T22:10:50.632Z,7.93
2019-02-09T22:13:20.962Z,7.99
2019-02-09T22:15:51.853Z,7.98
2019-02-09T22:18:22.591Z,7.95
2019-02-09T22:20:54.464Z,7.89
2019-02-09T22:23:33.688Z,7.85
2019-02-09T22:26:04.116Z,7.86
2019-02-09T22:28:34.814Z,7.89
2019-02-09T22:31:05.959Z,7.83
2019-02-09T22:33:40.170Z,7.79
2019-02-09T22:36:14.869Z,7.91
2019-02-09T22:38:46.617Z,7.90
2019-02-09T22:41:19.023Z,7.95
2019-02-09T22:43:49.430Z,8.01
2019-02-09T22:46:23.135Z,8.03
2019-02-09T22:48:54.888Z,8.03
2019-02-09T22:51:30.376Z,7.95
2019-02-09T22:54:03.850Z,7.91
2019-02-09T22:56:34.479Z,7.92
2019-02-09T22:59:05.292Z,7.89
2019-02-09T23:01:45.273Z,7.91
2019-02-09T23:04:42.763Z,7.93
2019-02-09T23:07:19.163Z,7.85
2019-02-09T23:09:56.171Z,7.81
2019-02-09T23:12:33.230Z,7.83
2019-02-09T23:15:24.005Z,7.84
2019-02-09T23:20:47.914Z,7.98
2019-02-09T23:23:24.011Z,7.97
2019-02-09T23:25:56.627Z,7.99
2019-02-09T23:28:27.058Z,8.00
2019-02-09T23:30:57.614Z,8.02
2019-02-09T23:33:29.138Z,8.08
2019-02-09T23:36:02.872Z,8.07
2019-02-09T23:38:33.521Z,8.09
2019-02-09T23:41:08.854Z,8.13
2019-02-09T23:43:41.843Z,8.20
2019-02-09T23:46:16.222Z,8.18
2019-02-09T23:48:48.170Z,8.19
2019-02-09T23:51:18.912Z,8.15
2019-02-09T23:53:49.228Z,8.20
2019-02-09T23:56:23.908Z,8.24
2019-02-09T23:58:54.192Z,8.24
